Time;durP1;ratioP1;P1;durP2;ratioP2;P2;SDS_P1;SDS_P2;PMS_P1;PMS_P2;Temp;Humidity;BMP_temperature;BMP_pressure;BME280_temperature;BME280_humidity;BME280_pressure;Samples;Min_cycle;Max_cycle;Signal;HPM_P1;HPM_P2
2022/02/04 00:05:51;;;;;;;9.93;8.95;;;7.30;99.90;;;;;;4990490;28;20076;-76
2022/02/04 00:24:04;;;;;;;8.93;8.02;;;7.20;99.90;;;;;;4993888;28;20018;-77
2022/02/04 00:26:35;;;;;;;10.20;8.98;;;7.20;99.90;;;;;;4996209;28;20029;-76
2022/02/04 00:29:19;;;;;;;10.02;9.02;;;7.20;99.90;;;;;;4992055;28;20022;-77
2022/02/04 00:32:00;;;;;;;9.65;8.68;;;7.20;99.90;;;;;;4989986;28;20042;-76
2022/02/04 00:34:33;;;;;;;9.70;8.68;;;7.20;99.90;;;;;;4990938;28;20023;-76
2022/02/04 00:39:30;;;;;;;8.68;7.65;;;7.30;99.90;;;;;;5003782;28;20490;-76
2022/02/04 00:42:03;;;;;;;9.43;7.07;;;7.30;99.90;;;;;;4998553;28;20019;-76
2022/02/04 00:44:30;;;;;;;6.45;5.85;;;7.30;99.90;;;;;;5013189;28;20019;-76
2022/02/04 00:49:57;;;;;;;5.90;5.40;;;7.40;99.90;;;;;;4992563;28;20462;-77
2022/02/04 00:52:48;;;;;;;7.13;6.28;;;7.40;99.90;;;;;;4984272;28;20070;-76
2022/02/04 00:55:26;;;;;;;5.85;5.00;;;7.40;99.90;;;;;;4992265;28;20037;-75
2022/02/04 01:27:20;;;;;;;5.63;5.03;;;7.30;99.90;;;;;;4994824;28;20282;-76
2022/02/04 01:30:25;;;;;;;5.65;4.88;;;7.30;99.90;;;;;;4993779;28;20073;-75
2022/02/04 01:32:37;;;;;;;6.13;5.25;;;7.30;99.90;;;;;;4988701;28;20506;-75
2022/02/04 01:35:03;;;;;;;5.20;4.80;;;7.30;99.90;;;;;;4995301;28;20026;-75
2022/02/04 01:37:30;;;;;;;5.53;5.03;;;7.30;99.90;;;;;;4996355;28;20019;-77
2022/02/04 01:39:56;;;;;;;4.90;4.40;;;7.30;99.90;;;;;;4995263;28;20033;-77
2022/02/04 01:42:21;;;;;;;5.50;4.90;;;7.20;99.90;;;;;;4995243;28;20026;-76
2022/02/04 01:44:47;;;;;;;5.07;4.30;;;7.20;99.90;;;;;;4994563;28;20022;-76
2022/02/04 01:47:14;;;;;;;5.88;4.32;;;7.20;99.90;;;;;;4995443;28;20034;-76
2022/02/04 01:49:39;;;;;;;4.95;4.40;;;7.20;99.90;;;;;;4992833;28;20073;-75
2022/02/04 01:52:05;;;;;;;5.53;4.80;;;7.20;99.90;;;;;;4999602;28;20018;-75
2022/02/04 01:54:31;;;;;;;5.00;4.45;;;7.20;99.90;;;;;;4998101;28;20058;-76
2022/02/04 01:56:57;;;;;;;5.00;4.50;;;7.20;99.90;;;;;;4996921;28;20034;-75
2022/02/04 01:59:23;;;;;;;6.18;5.57;;;7.20;99.90;;;;;;4995142;28;20034;-76
2022/02/04 02:01:48;;;;;;;4.85;4.35;;;7.20;99.90;;;;;;4995390;28;20101;-76
2022/02/04 02:04:15;;;;;;;5.13;4.18;;;7.20;99.90;;;;;;4994838;28;20034;-75
2022/02/04 02:06:46;;;;;;;4.72;4.25;;;7.20;99.90;;;;;;4994013;28;20162;-75
2022/02/04 02:09:13;;;;;;;6.57;4.97;;;7.20;99.90;;;;;;5002708;28;20512;-76
2022/02/04 02:11:38;;;;;;;4.53;4.13;;;7.20;99.90;;;;;;4991146;28;20478;-74
2022/02/04 02:14:08;;;;;;;4.25;3.85;;;7.20;99.90;;;;;;4998097;28;20068;-75
2022/02/04 02:35:51;;;;;;;7.80;4.28;;;7.10;99.90;;;;;;4984647;28;20022;-76
2022/02/04 02:46:39;;;;;;;7.57;4.45;;;7.10;99.90;;;;;;4994084;28;20089;-76
2022/02/04 02:49:28;;;;;;;5.25;4.05;;;7.10;99.90;;;;;;4993913;28;20498;-75
2022/02/04 02:57:08;;;;;;;4.68;4.22;;;7.00;99.90;;;;;;4994142;28;20079;-76
2022/02/04 03:02:12;;;;;;;5.72;4.88;;;7.00;99.90;;;;;;4996323;28;20030;-76
2022/02/04 03:04:38;;;;;;;4.80;4.18;;;7.00;99.90;;;;;;4994364;28;20022;-76
2022/02/04 03:07:03;;;;;;;6.18;4.68;;;7.00;99.90;;;;;;4993627;28;20137;-75
2022/02/04 03:09:29;;;;;;;6.20;4.90;;;7.00;99.90;;;;;;4993611;28;20101;-75
2022/02/04 03:11:54;;;;;;;7.05;5.93;;;7.00;99.90;;;;;;4993263;28;20027;-76
2022/02/04 03:14:20;;;;;;;6.35;4.90;;;7.00;99.90;;;;;;4993059;28;20026;-75
2022/02/04 03:16:45;;;;;;;5.20;4.70;;;7.00;99.90;;;;;;4993712;28;20090;-75
2022/02/04 03:19:11;;;;;;;5.60;5.00;;;7.00;99.90;;;;;;5000390;28;20046;-76
2022/02/04 03:21:41;;;;;;;4.20;3.80;;;6.90;99.90;;;;;;5003439;28;20022;-74
2022/02/04 03:24:11;;;;;;;5.03;4.53;;;6.90;99.90;;;;;;5003994;28;20041;-75
2022/02/04 03:26:54;;;;;;;5.30;4.75;;;6.90;99.90;;;;;;4999124;28;20394;-75
2022/02/04 03:29:28;;;;;;;4.90;4.40;;;6.90;99.90;;;;;;4993789;28;20031;-74
2022/02/04 03:31:55;;;;;;;5.22;4.82;;;6.90;99.90;;;;;;4991695;28;20050;-76
2022/02/04 03:34:21;;;;;;;6.75;5.20;;;6.90;99.90;;;;;;5005889;28;20113;-74
2022/02/04 03:36:46;;;;;;;4.70;4.30;;;6.90;99.90;;;;;;5010133;28;20030;-75
2022/02/04 03:39:12;;;;;;;6.57;5.15;;;6.90;99.90;;;;;;5012622;28;20041;-77
2022/02/04 03:41:38;;;;;;;5.38;4.88;;;6.90;99.90;;;;;;5003502;28;20057;-75
2022/02/04 03:44:04;;;;;;;6.13;5.13;;;6.90;99.90;;;;;;4994377;28;20030;-75
2022/02/04 03:46:29;;;;;;;4.50;4.10;;;6.90;99.90;;;;;;4992525;28;20033;-75
2022/02/04 03:48:56;;;;;;;5.13;4.63;;;6.90;99.90;;;;;;4992502;28;20393;-75
2022/02/04 03:51:22;;;;;;;5.93;4.90;;;6.90;99.90;;;;;;4985762;28;20026;-75
2022/02/04 03:53:47;;;;;;;6.80;4.10;;;6.90;99.90;;;;;;4993112;28;20023;-76
2022/02/04 03:56:13;;;;;;;9.75;4.85;;;6.90;99.90;;;;;;4993023;28;20359;-75
2022/02/04 03:58:38;;;;;;;5.55;4.78;;;6.90;99.90;;;;;;4993072;28;20499;-75
2022/02/04 04:01:05;;;;;;;6.13;5.38;;;6.90;99.90;;;;;;5007268;28;20010;-75
2022/02/04 04:03:31;;;;;;;5.70;5.20;;;6.90;99.90;;;;;;5012229;28;20022;-76
2022/02/04 04:05:57;;;;;;;4.95;4.47;;;6.90;99.90;;;;;;4991504;28;20034;-75
2022/02/04 04:08:22;;;;;;;5.43;4.93;;;6.90;99.90;;;;;;5001315;28;20056;-75
2022/02/04 04:10:50;;;;;;;5.30;4.60;;;6.90;99.90;;;;;;5010868;28;20029;-75
2022/02/04 04:13:16;;;;;;;5.93;4.68;;;6.90;99.90;;;;;;5013413;28;20113;-75
2022/02/04 04:15:42;;;;;;;5.00;4.50;;;6.90;99.90;;;;;;5012958;28;20033;-75
2022/02/04 04:18:12;;;;;;;5.72;4.47;;;6.80;99.90;;;;;;5013289;28;20042;-76
2022/02/04 04:20:39;;;;;;;5.50;5.00;;;6.80;99.90;;;;;;4991148;28;20157;-74
2022/02/04 04:23:05;;;;;;;6.28;4.90;;;6.80;99.90;;;;;;4993157;28;20031;-75
2022/02/04 04:25:30;;;;;;;5.38;4.88;;;6.80;99.90;;;;;;4992759;28;20030;-75
2022/02/04 04:27:56;;;;;;;6.18;4.93;;;6.80;99.90;;;;;;4992162;28;20030;-76
2022/02/04 04:30:23;;;;;;;5.32;4.88;;;6.80;99.90;;;;;;4991496;28;20029;-76
2022/02/04 04:32:54;;;;;;;5.45;4.95;;;6.90;99.90;;;;;;5017005;23;20054;-81
2022/02/04 04:35:24;;;;;;;4.95;4.55;;;6.80;99.90;;;;;;4970944;28;20047;-81
2022/02/04 05:29:53;;;;;;;5.68;4.82;;;6.60;99.90;;;;;;4960280;28;21825;-79
2022/02/04 05:32:19;;;;;;;5.38;4.88;;;6.60;99.90;;;;;;4960698;28;20027;-81
2022/02/04 05:34:46;;;;;;;6.28;5.47;;;6.60;99.90;;;;;;4964110;28;20015;-80
2022/02/04 05:37:13;;;;;;;5.78;5.18;;;6.60;99.90;;;;;;4961499;28;20035;-80
2022/02/04 05:40:05;;;;;;;5.28;4.78;;;6.60;99.90;;;;;;4961661;28;20107;-81
2022/02/04 05:42:31;;;;;;;5.32;4.80;;;6.70;99.90;;;;;;4962649;28;20024;-80
2022/02/04 05:45:02;;;;;;;5.82;5.28;;;6.70;99.90;;;;;;4964583;28;20059;-80
2022/02/04 05:47:28;;;;;;;6.00;5.00;;;6.70;99.90;;;;;;4961747;28;20047;-79
2022/02/04 05:52:56;;;;;;;7.68;5.47;;;6.60;99.90;;;;;;4957161;28;20042;-81
2022/02/04 05:58:01;;;;;;;6.93;5.88;;;6.60;99.90;;;;;;4963481;28;20047;-80
2022/02/04 06:00:44;;;;;;;6.10;5.50;;;6.60;99.90;;;;;;4952899;28;20027;-81
2022/02/04 06:11:35;;;;;;;6.93;5.63;;;6.50;99.90;;;;;;4959283;28;20022;-81
2022/02/04 06:14:30;;;;;;;6.45;5.85;;;6.50;99.90;;;;;;4967737;28;20019;-81
2022/02/04 06:22:26;;;;;;;8.55;5.97;;;6.50;99.90;;;;;;4968939;28;20103;-78
2022/02/04 06:24:53;;;;;;;7.43;5.95;;;6.50;99.90;;;;;;4979625;28;20015;-80
2022/02/04 06:27:22;;;;;;;8.57;5.53;;;6.50;99.90;;;;;;4979241;28;20031;-79
2022/02/04 06:29:52;;;;;;;6.60;5.72;;;6.50;99.90;;;;;;4975407;28;20028;-80
2022/02/04 06:32:19;;;;;;;6.47;5.87;;;6.40;99.90;;;;;;4966372;28;20115;-80
2022/02/04 06:34:45;;;;;;;7.53;6.50;;;6.40;99.90;;;;;;4969407;28;20016;-81
2022/02/04 06:37:11;;;;;;;8.43;6.60;;;6.40;99.90;;;;;;4974020;28;20011;-79
2022/02/04 06:39:37;;;;;;;7.18;6.47;;;6.40;99.90;;;;;;4973423;28;20030;-81
2022/02/04 06:42:04;;;;;;;7.43;6.75;;;6.30;99.90;;;;;;4967149;28;20039;-81
2022/02/04 06:44:30;;;;;;;7.00;6.05;;;6.40;99.90;;;;;;4966830;28;20034;-80
2022/02/04 06:46:55;;;;;;;7.15;6.45;;;6.40;99.90;;;;;;4975697;28;20022;-80
2022/02/04 06:49:21;;;;;;;5.70;5.20;;;6.40;99.90;;;;;;4988684;28;20011;-79
2022/02/04 06:51:47;;;;;;;6.25;5.75;;;6.40;99.90;;;;;;4985594;28;20043;-79
2022/02/04 06:54:12;;;;;;;6.90;6.25;;;6.40;99.90;;;;;;4974618;28;20077;-80
2022/02/04 06:56:38;;;;;;;6.85;6.28;;;6.30;99.90;;;;;;4975344;28;20038;-79
2022/02/04 06:59:04;;;;;;;6.57;5.95;;;6.40;99.90;;;;;;4966616;28;20047;-81
2022/02/04 07:01:31;;;;;;;6.60;6.00;;;6.40;99.90;;;;;;4971002;28;20023;-80
2022/02/04 07:03:57;;;;;;;6.22;5.55;;;6.40;99.90;;;;;;4976166;28;20024;-78
2022/02/04 07:06:23;;;;;;;7.00;6.18;;;6.40;99.90;;;;;;4976333;28;20033;-81
2022/02/04 07:16:27;;;;;;;7.25;6.60;;;6.40;99.90;;;;;;4975059;28;20007;-76
2022/02/04 07:21:37;;;;;;;7.50;6.20;;;6.40;99.90;;;;;;4975195;29;20038;-75
2022/02/04 07:24:03;;;;;;;6.18;5.57;;;6.40;99.90;;;;;;4968448;28;20065;-77
2022/02/04 07:26:30;;;;;;;6.95;5.03;;;6.40;99.90;;;;;;4979273;28;20047;-77
2022/02/04 07:28:57;;;;;;;6.97;5.65;;;6.40;99.90;;;;;;4974492;28;20062;-77
2022/02/04 07:31:25;;;;;;;6.90;5.90;;;6.50;99.90;;;;;;4970646;28;20030;-78
2022/02/04 07:34:03;;;;;;;7.03;5.70;;;6.50;99.90;;;;;;4969548;28;20074;-79
2022/02/04 07:41:52;;;;;;;6.13;5.53;;;6.50;99.90;;;;;;4968412;28;20518;-78
2022/02/04 07:44:17;;;;;;;8.80;5.63;;;6.50;99.90;;;;;;4967227;28;20513;-78
2022/02/04 07:46:44;;;;;;;7.68;6.70;;;6.50;99.90;;;;;;4968796;28;20019;-78
2022/02/04 07:49:11;;;;;;;6.38;5.78;;;6.50;99.90;;;;;;4960491;28;20076;-78
2022/02/04 07:51:36;;;;;;;6.72;6.03;;;6.60;99.90;;;;;;4979023;28;20035;-78
2022/02/04 07:54:03;;;;;;;7.32;5.53;;;6.60;99.90;;;;;;4967332;28;20027;-77
2022/02/04 07:56:29;;;;;;;6.35;5.63;;;6.60;99.90;;;;;;4971529;28;20081;-77
2022/02/04 07:58:56;;;;;;;7.00;5.45;;;6.90;99.90;;;;;;4975959;28;20131;-77
2022/02/04 08:01:30;;;;;;;6.68;4.60;;;6.80;99.90;;;;;;4966669;28;20057;-76
2022/02/04 08:06:33;;;;;;;5.35;4.85;;;6.80;99.90;;;;;;4979990;28;20467;-77
2022/02/04 08:14:13;;;;;;;6.65;5.90;;;7.10;99.90;;;;;;4970755;28;20019;-77
2022/02/04 08:22:27;;;;;;;10.93;7.07;;;7.00;99.90;;;;;;4971672;28;20213;-78
2022/02/04 08:27:55;;;;;;;12.82;8.50;;;7.00;99.90;;;;;;4974265;28;20023;-77
2022/02/04 08:47:36;;;;;;;7.40;6.40;;;7.10;99.90;;;;;;4975053;28;20031;-76
2022/02/04 08:49:47;;;;;;;7.10;6.40;;;7.20;99.90;;;;;;4964120;28;20042;-77
2022/02/04 08:54:48;;;;;;;12.75;6.75;;;7.20;99.90;;;;;;4974007;28;20047;-79
2022/02/04 08:57:37;;;;;;;7.03;6.32;;;7.30;99.90;;;;;;4975416;28;20041;-79
2022/02/04 09:03:14;;;;;;;8.18;7.07;;;7.60;99.90;;;;;;4966921;29;20058;-79
2022/02/04 09:05:42;;;;;;;8.77;5.82;;;7.70;99.90;;;;;;4982153;28;20026;-78
2022/02/04 09:09:13;;;;;;;6.57;5.70;;;7.90;99.90;;;;;;4977407;28;20038;-79
2022/02/04 09:11:07;;;;;;;6.00;5.30;;;8.00;99.90;;;;;;4949733;28;20047;-80
2022/02/04 09:19:09;;;;;;;4.75;4.35;;;8.70;99.90;;;;;;4977388;28;20042;-81
2022/02/04 09:24:05;;;;;;;4.70;4.20;;;8.70;99.90;;;;;;4977473;28;20043;-80
2022/02/04 09:26:32;;;;;;;5.45;4.78;;;8.80;99.90;;;;;;4980440;28;20049;-82
2022/02/04 09:28:57;;;;;;;6.15;4.80;;;8.80;99.90;;;;;;4987316;28;20023;-80
2022/02/04 09:31:23;;;;;;;6.55;5.47;;;8.70;99.90;;;;;;4987338;28;20024;-80
2022/02/04 09:33:48;;;;;;;5.78;5.10;;;8.90;99.90;;;;;;4972130;28;20054;-81
2022/02/04 09:36:14;;;;;;;7.00;5.53;;;8.90;99.90;;;;;;4969918;28;20043;-79
2022/02/04 09:38:40;;;;;;;6.85;5.28;;;8.70;99.90;;;;;;4960142;28;20081;-77
2022/02/04 09:41:05;;;;;;;6.38;5.72;;;8.60;99.90;;;;;;4957889;28;20470;-77
2022/02/04 09:43:31;;;;;;;7.13;5.20;;;8.50;99.90;;;;;;4958530;28;20033;-77
2022/02/04 09:45:57;;;;;;;6.25;5.35;;;8.40;99.90;;;;;;4952126;28;20096;-76
2022/02/04 09:48:22;;;;;;;6.50;4.82;;;8.40;99.90;;;;;;4965938;28;20015;-76
2022/02/04 09:50:52;;;;;;;4.95;4.55;;;8.30;99.90;;;;;;4961716;28;20047;-77
2022/02/04 10:09:52;;;;;;;2.92;2.63;;;8.90;99.90;;;;;;4968469;28;20046;-80
2022/02/04 10:12:49;;;;;;;2.40;2.20;;;9.10;99.90;;;;;;4974672;28;20019;-80
2022/02/04 10:18:03;;;;;;;3.83;2.08;;;8.80;99.90;;;;;;4978119;28;20022;-80
2022/02/04 10:20:28;;;;;;;2.58;2.38;;;8.90;99.90;;;;;;4979359;29;20015;-82
2022/02/04 10:22:56;;;;;;;2.83;2.33;;;9.00;99.90;;;;;;4971462;28;20062;-78
2022/02/04 10:25:29;;;;;;;2.72;2.53;;;9.10;99.90;;;;;;4975539;28;20034;-79
2022/02/04 10:27:55;;;;;;;2.17;1.98;;;9.20;99.90;;;;;;4983940;28;20039;-79
2022/02/04 10:30:21;;;;;;;2.50;2.30;;;9.20;99.90;;;;;;4981073;28;20031;-78
2022/02/04 10:32:51;;;;;;;2.50;2.17;;;9.20;99.90;;;;;;4975149;28;20035;-79
2022/02/04 10:35:34;;;;;;;1.97;1.80;;;9.30;99.90;;;;;;4970553;28;20023;-79
2022/02/04 10:38:21;;;;;;;1.92;1.73;;;9.30;99.90;;;;;;4959186;28;20019;-81
2022/02/04 10:41:11;;;;;;;2.10;1.50;;;9.40;99.90;;;;;;4998067;28;20035;-80
2022/02/04 10:49:47;;;;;;;2.33;2.00;;;9.10;99.90;;;;;;4975803;28;20085;-80
2022/02/04 10:52:39;;;;;;;2.42;2.22;;;9.20;99.90;;;;;;4984118;28;20035;-80
2022/02/04 11:00:41;;;;;;;2.10;1.90;;;9.00;99.90;;;;;;4973762;28;20031;-82
2022/02/04 11:03:12;;;;;;;1.90;1.67;;;9.00;99.90;;;;;;4974531;28;20035;-80
2022/02/04 11:05:53;;;;;;;1.90;1.65;;;8.80;99.90;;;;;;4981732;28;20019;-80
2022/02/04 11:08:47;;;;;;;2.13;1.88;;;8.80;99.90;;;;;;4967628;28;20170;-80
2022/02/04 11:36:11;;;;;;;3.00;1.83;;;9.00;99.90;;;;;;4969193;28;20076;-80
2022/02/04 11:51:03;;;;;;;1.33;1.23;;;9.20;99.90;;;;;;4971338;28;20038;-77
2022/02/04 11:53:37;;;;;;;1.73;1.60;;;9.30;99.90;;;;;;4971332;28;20018;-76
2022/02/04 11:56:02;;;;;;;1.67;1.13;;;9.30;99.90;;;;;;4963934;28;20019;-76
2022/02/04 11:59:02;;;;;;;1.90;1.42;;;9.20;99.90;;;;;;4968542;28;20026;-78
2022/02/04 12:01:49;;;;;;;2.17;1.58;;;9.20;99.90;;;;;;4953894;28;20027;-77
2022/02/04 12:04:20;;;;;;;1.40;1.27;;;9.20;99.90;;;;;;4969466;28;20019;-76
2022/02/04 12:06:46;;;;;;;1.25;1.15;;;9.20;99.90;;;;;;4967810;28;20499;-77
2022/02/04 12:09:14;;;;;;;1.75;1.40;;;9.20;99.90;;;;;;4969848;28;20027;-78
2022/02/04 12:11:40;;;;;;;1.55;0.90;;;9.50;99.90;;;;;;4970007;28;20024;-75
2022/02/04 12:14:11;;;;;;;1.67;1.00;;;9.60;99.90;;;;;;4955941;28;20055;-77
2022/02/04 12:17:07;;;;;;;1.38;0.90;;;9.70;99.90;;;;;;4963921;28;20087;-79
2022/02/04 12:19:44;;;;;;;1.50;1.00;;;9.60;99.90;;;;;;4961001;28;20051;-78
2022/02/04 12:22:10;;;;;;;1.00;0.82;;;9.50;99.90;;;;;;4977010;28;20479;-79
2022/02/04 12:24:39;;;;;;;1.20;1.10;;;9.60;99.90;;;;;;4964232;28;20031;-78
2022/02/04 12:27:30;;;;;;;1.23;0.90;;;9.40;99.90;;;;;;4969332;28;20023;-79
2022/02/04 12:29:57;;;;;;;1.52;0.98;;;9.20;99.90;;;;;;4961726;28;20035;-78
2022/02/04 12:32:25;;;;;;;0.93;0.80;;;9.00;99.90;;;;;;4967695;28;20023;-78
2022/02/04 12:34:51;;;;;;;1.20;1.10;;;9.00;99.90;;;;;;4967858;28;20091;-79
2022/02/04 12:37:21;;;;;;;1.27;1.02;;;8.90;99.90;;;;;;4979737;28;20023;-78
2022/02/04 12:39:47;;;;;;;2.42;1.35;;;9.00;99.90;;;;;;4978507;28;20059;-78
2022/02/04 12:42:15;;;;;;;1.67;1.20;;;9.10;99.90;;;;;;4968655;28;20498;-79
2022/02/04 12:44:42;;;;;;;1.20;1.10;;;9.10;99.90;;;;;;4971648;28;20023;-79
2022/02/04 12:47:14;;;;;;;1.48;0.90;;;9.10;99.90;;;;;;4973692;28;20058;-78
2022/02/04 12:49:52;;;;;;;0.85;0.82;;;9.30;99.90;;;;;;4968859;28;20023;-79
2022/02/04 12:52:42;;;;;;;1.15;0.90;;;9.10;99.90;;;;;;4961408;28;20073;-79
2022/02/04 12:55:12;;;;;;;1.90;1.17;;;9.20;99.90;;;;;;4966707;28;20024;-79
2022/02/04 12:57:44;;;;;;;1.17;1.08;;;9.20;99.90;;;;;;4967071;28;20381;-80
2022/02/04 13:08:18;;;;;;;1.40;1.30;;;9.10;99.90;;;;;;4975908;28;20079;-78
2022/02/04 13:10:45;;;;;;;2.70;1.05;;;8.90;99.90;;;;;;4973810;28;20048;-79
2022/02/04 13:13:14;;;;;;;1.50;0.85;;;8.90;99.90;;;;;;4971014;28;20075;-79
2022/02/04 13:15:43;;;;;;;1.20;1.00;;;9.00;99.90;;;;;;4978538;28;20031;-78
2022/02/04 13:18:11;;;;;;;1.30;1.05;;;9.10;99.90;;;;;;4972843;28;20391;-78
2022/02/04 13:20:39;;;;;;;2.95;0.90;;;9.00;99.90;;;;;;4965186;28;20082;-80
2022/02/04 13:23:10;;;;;;;1.88;1.48;;;9.00;99.90;;;;;;4985982;28;20145;-78
2022/02/04 13:25:42;;;;;;;4.22;1.42;;;8.80;99.90;;;;;;4980600;28;20030;-78
2022/02/04 13:28:27;;;;;;;1.00;0.73;;;9.00;99.90;;;;;;4985009;28;20086;-77
2022/02/04 13:31:04;;;;;;;2.70;1.02;;;8.90;99.90;;;;;;4976704;28;20110;-79
2022/02/04 13:33:46;;;;;;;1.58;1.10;;;8.90;99.90;;;;;;4993018;28;20110;-79
2022/02/04 13:38:48;;;;;;;1.45;1.08;;;8.80;99.90;;;;;;4973001;28;19906;-79
2022/02/04 13:44:38;;;;;;;1.70;1.02;;;8.90;99.90;;;;;;4975805;28;20014;-79
2022/02/04 14:01:02;;;;;;;1.27;0.90;;;8.80;99.90;;;;;;4974130;28;20447;-80
2022/02/04 14:03:32;;;;;;;1.60;0.80;;;8.80;99.90;;;;;;4967427;28;20019;-79
2022/02/04 14:06:07;;;;;;;1.63;0.93;;;8.80;99.90;;;;;;4978848;28;20023;-81
2022/02/04 14:09:00;;;;;;;1.00;0.90;;;8.90;99.90;;;;;;4977895;28;20007;-79
2022/02/04 14:11:32;;;;;;;1.30;1.00;;;8.80;99.90;;;;;;4970115;28;20051;-80
2022/02/04 14:13:59;;;;;;;0.95;0.82;;;8.90;99.90;;;;;;4976902;28;20035;-81
2022/02/04 14:16:26;;;;;;;1.80;1.13;;;8.90;99.90;;;;;;4972813;28;20020;-80
2022/02/04 14:18:52;;;;;;;1.45;1.20;;;8.90;99.90;;;;;;4978846;28;20045;-80
2022/02/04 14:21:18;;;;;;;2.25;0.70;;;8.80;99.90;;;;;;4987756;28;20028;-80
2022/02/04 14:23:51;;;;;;;1.17;0.90;;;8.90;99.90;;;;;;4976852;28;20022;-79
2022/02/04 14:26:24;;;;;;;0.80;0.77;;;8.90;99.90;;;;;;4981363;28;20022;-81
2022/02/04 14:28:56;;;;;;;2.75;1.10;;;8.90;99.90;;;;;;4977805;28;20017;-80
2022/02/04 14:31:31;;;;;;;5.43;0.90;;;8.80;99.90;;;;;;4985830;28;20043;-80
2022/02/04 14:36:53;;;;;;;0.85;0.80;;;8.80;99.90;;;;;;4982292;28;20018;-79
2022/02/04 14:58:42;;;;;;;4.25;1.27;;;8.80;99.90;;;;;;4966839;28;20110;-80
2022/02/04 15:01:30;;;;;;;1.67;1.02;;;8.70;99.90;;;;;;4972178;28;20118;-80
2022/02/04 15:04:09;;;;;;;3.72;0.80;;;8.60;99.90;;;;;;4965984;28;20032;-78
2022/02/04 15:06:38;;;;;;;0.68;0.60;;;8.60;99.90;;;;;;4972862;28;20057;-77
2022/02/04 15:09:09;;;;;;;1.08;0.68;;;8.60;99.90;;;;;;4972136;28;20051;-79
2022/02/04 15:11:43;;;;;;;1.33;0.75;;;8.60;99.90;;;;;;4974501;28;20023;-76
2022/02/04 15:14:15;;;;;;;0.80;0.70;;;8.70;99.90;;;;;;4974647;28;20027;-76
2022/02/04 15:16:43;;;;;;;0.65;0.65;;;8.60;99.90;;;;;;4976424;28;20039;-76
2022/02/04 15:19:10;;;;;;;1.23;0.80;;;8.60;99.90;;;;;;4973427;28;20090;-78
2022/02/04 15:21:36;;;;;;;1.40;0.75;;;8.60;99.90;;;;;;4962799;28;20376;-78
2022/02/04 15:24:03;;;;;;;1.10;0.77;;;8.50;99.90;;;;;;4982924;28;20039;-78
2022/02/04 15:26:29;;;;;;;1.13;0.95;;;8.50;99.90;;;;;;4968563;28;20020;-78
2022/02/04 15:29:01;;;;;;;1.25;0.70;;;8.60;99.90;;;;;;4968530;28;20110;-75
2022/02/04 15:33:57;;;;;;;0.75;0.70;;;8.50;99.90;;;;;;4962240;28;20044;-76
2022/02/04 15:36:27;;;;;;;1.90;0.88;;;8.50;99.90;;;;;;4969739;28;20008;-79
2022/02/04 15:38:52;;;;;;;1.42;0.80;;;8.50;99.90;;;;;;4969472;28;20415;-78
2022/02/04 15:41:21;;;;;;;1.05;0.70;;;8.40;99.90;;;;;;4977052;28;20027;-79
2022/02/04 15:43:50;;;;;;;1.00;0.65;;;8.40;99.90;;;;;;4973717;28;20023;-79
2022/02/04 15:51:44;;;;;;;1.00;0.68;;;8.50;99.90;;;;;;4967326;28;20042;-76
2022/02/04 16:04:24;;;;;;;1.00;0.70;;;8.50;99.90;;;;;;4958056;28;20182;-77
2022/02/04 16:06:50;;;;;;;2.75;2.13;;;8.40;99.90;;;;;;4959306;28;20388;-76
2022/02/04 16:09:19;;;;;;;1.67;1.27;;;8.30;99.90;;;;;;4950578;28;20034;-77
2022/02/04 16:14:25;;;;;;;1.38;1.02;;;8.30;99.90;;;;;;4966703;28;20136;-77
2022/02/04 16:16:59;;;;;;;;;;;8.50;99.90;;;;;;4964355;28;20047;-77
2022/02/04 16:19:28;;;;;;;0.95;0.75;;;8.50;99.90;;;;;;4972146;28;20006;-79
2022/02/04 16:25:10;;;;;;;2.30;1.13;;;8.30;99.90;;;;;;4966234;28;20243;-79
2022/02/04 16:30:02;;;;;;;0.70;0.50;;;8.30;99.90;;;;;;4965365;28;20043;-77
2022/02/04 16:32:28;;;;;;;0.93;0.70;;;8.20;99.90;;;;;;4956120;28;20023;-77
2022/02/04 16:34:55;;;;;;;6.43;0.80;;;8.20;99.90;;;;;;4955505;28;20027;-77
2022/02/04 16:37:32;;;;;;;1.25;0.88;;;8.20;99.90;;;;;;4956958;28;20070;-76
2022/02/04 16:39:59;;;;;;;0.70;0.70;;;8.20;99.90;;;;;;4953349;28;20019;-76
2022/02/04 16:42:27;;;;;;;0.82;0.65;;;8.10;99.90;;;;;;4951462;28;20030;-75
2022/02/04 16:44:53;;;;;;;2.08;0.70;;;8.20;99.90;;;;;;4962358;28;20038;-75
2022/02/04 16:47:18;;;;;;;1.52;0.95;;;8.10;99.90;;;;;;4961308;28;20054;-75
2022/02/04 16:49:44;;;;;;;1.02;0.80;;;8.10;99.90;;;;;;4958850;28;20094;-74
2022/02/04 16:52:10;;;;;;;0.88;0.80;;;8.20;99.90;;;;;;4959868;28;20530;-75
2022/02/04 16:54:37;;;;;;;2.13;0.82;;;8.20;99.90;;;;;;4964287;28;20102;-75
2022/02/04 16:57:05;;;;;;;0.75;0.70;;;8.10;99.90;;;;;;4960049;28;20027;-74
2022/02/04 16:59:31;;;;;;;1.42;0.80;;;8.10;99.90;;;;;;4959166;28;20050;-77
2022/02/04 17:01:57;;;;;;;1.20;0.88;;;8.10;99.90;;;;;;4961762;28;20043;-76
2022/02/04 17:04:23;;;;;;;1.05;0.70;;;8.10;99.90;;;;;;4962970;28;20443;-77
2022/02/04 17:06:57;;;;;;;1.98;1.35;;;8.10;99.90;;;;;;4967443;28;20040;-76
2022/02/04 17:09:28;;;;;;;2.38;0.63;;;8.20;99.90;;;;;;4949878;29;20090;-77
2022/02/04 17:12:03;;;;;;;0.85;0.52;;;8.30;99.90;;;;;;4963996;28;20470;-77
2022/02/04 17:14:30;;;;;;;0.70;0.60;;;8.20;99.90;;;;;;4962226;28;20020;-77
2022/02/04 17:16:57;;;;;;;1.50;1.20;;;8.20;99.90;;;;;;4961327;28;20037;-76
2022/02/04 17:19:25;;;;;;;1.23;0.90;;;8.10;99.90;;;;;;4968710;28;20078;-77
2022/02/04 17:21:51;;;;;;;1.60;1.20;;;8.20;99.90;;;;;;4957240;28;20105;-77
2022/02/04 17:24:18;;;;;;;1.00;0.85;;;8.10;99.90;;;;;;4960094;28;20085;-77
2022/02/04 17:26:45;;;;;;;1.30;0.85;;;8.10;99.90;;;;;;4961783;28;20046;-77
2022/02/04 17:29:13;;;;;;;1.20;1.00;;;8.20;99.90;;;;;;4962085;28;20028;-76
2022/02/04 17:31:39;;;;;;;1.40;0.85;;;8.10;99.90;;;;;;4963307;28;20090;-76
2022/02/04 17:34:06;;;;;;;1.10;0.75;;;8.20;99.90;;;;;;4959715;28;20078;-78
2022/02/04 17:36:33;;;;;;;1.20;1.10;;;8.20;99.90;;;;;;4960930;28;20020;-77
2022/02/04 17:39:00;;;;;;;0.95;0.70;;;8.20;99.90;;;;;;4963064;28;20031;-79
2022/02/04 17:41:26;;;;;;;1.00;0.90;;;8.20;99.90;;;;;;4962321;28;20038;-76
2022/02/04 17:43:52;;;;;;;0.77;0.75;;;8.10;99.90;;;;;;4961245;28;20050;-75
2022/02/04 17:46:19;;;;;;;1.10;0.70;;;8.00;99.90;;;;;;4962808;28;20026;-77
2022/02/04 17:48:55;;;;;;;0.93;0.77;;;8.10;99.90;;;;;;4970193;28;20025;-76
2022/02/04 17:51:49;;;;;;;4.07;0.70;;;8.10;99.90;;;;;;4970490;28;20039;-77
2022/02/04 17:54:18;;;;;;;3.38;0.63;;;8.10;99.90;;;;;;4976046;28;20015;-75
2022/02/04 17:57:01;;;;;;;0.75;0.65;;;8.10;99.90;;;;;;4972961;28;20015;-77
2022/02/04 18:02:58;;;;;;;0.75;0.55;;;8.10;99.90;;;;;;4960302;28;20024;-77
2022/02/04 18:05:24;;;;;;;1.10;0.80;;;8.00;99.90;;;;;;4960639;28;20036;-76
2022/02/04 18:07:50;;;;;;;2.13;1.48;;;8.10;99.90;;;;;;4962656;28;20041;-76
2022/02/04 18:10:15;;;;;;;1.52;0.77;;;8.10;99.90;;;;;;4979717;28;20027;-75
2022/02/04 18:12:41;;;;;;;1.33;0.90;;;8.00;99.90;;;;;;4979747;28;20050;-77
2022/02/04 18:15:07;;;;;;;1.60;1.08;;;8.10;99.90;;;;;;4979084;28;20037;-77
2022/02/04 18:17:33;;;;;;;1.95;1.35;;;8.00;99.90;;;;;;4973277;28;20035;-74
2022/02/04 18:19:58;;;;;;;1.98;0.93;;;7.90;99.90;;;;;;4967952;28;20159;-77
2022/02/04 18:22:24;;;;;;;1.42;0.98;;;7.80;99.90;;;;;;4973959;28;20495;-76
2022/02/04 18:24:50;;;;;;;1.05;0.77;;;7.80;99.90;;;;;;4968134;28;20043;-77
2022/02/04 18:27:16;;;;;;;0.65;0.65;;;7.80;99.90;;;;;;4963734;28;20035;-76
2022/02/04 18:29:52;;;;;;;0.88;0.80;;;7.80;99.90;;;;;;4963731;28;20043;-77
2022/02/04 18:32:19;;;;;;;1.30;0.98;;;7.80;99.90;;;;;;4989223;28;20073;-78
2022/02/04 18:34:44;;;;;;;1.15;1.00;;;7.70;99.90;;;;;;4981058;28;20078;-76
2022/02/04 18:37:10;;;;;;;1.55;1.00;;;7.70;99.90;;;;;;4970474;28;20035;-76
2022/02/04 18:40:03;;;;;;;1.60;0.90;;;7.80;99.90;;;;;;4960159;28;20027;-77
2022/02/04 18:45:00;;;;;;;2.67;1.45;;;7.70;99.90;;;;;;4978374;28;20542;-75
2022/02/04 18:47:32;;;;;;;1.58;1.00;;;7.70;99.90;;;;;;4979480;28;20026;-76
2022/02/04 18:50:21;;;;;;;0.90;0.80;;;7.70;99.90;;;;;;4980846;28;20023;-76
2022/02/04 18:58:09;;;;;;;1.30;0.85;;;7.70;99.90;;;;;;4975228;28;20023;-76
2022/02/04 19:00:34;;;;;;;1.02;0.73;;;7.60;99.90;;;;;;4970197;28;20031;-78
2022/02/04 19:03:04;;;;;;;2.67;0.82;;;7.60;99.90;;;;;;4976928;28;20071;-78
2022/02/04 19:05:35;;;;;;;0.93;0.73;;;7.60;99.90;;;;;;4984737;28;20118;-78
2022/02/04 19:08:10;;;;;;;1.27;1.02;;;7.70;99.90;;;;;;4981576;28;20106;-77
2022/02/04 19:10:38;;;;;;;1.70;1.13;;;7.70;99.90;;;;;;4986085;28;20029;-77
2022/02/04 19:13:11;;;;;;;1.52;1.08;;;7.70;99.90;;;;;;4972514;28;20047;-80
2022/02/04 19:15:55;;;;;;;2.30;1.30;;;7.70;99.90;;;;;;4987274;28;20003;-81
2022/02/04 19:18:27;;;;;;;1.50;0.95;;;7.60;99.90;;;;;;4983009;28;20033;-80
2022/02/04 19:21:03;;;;;;;1.23;0.93;;;7.50;99.90;;;;;;4979259;28;20015;-80
2022/02/04 19:23:30;;;;;;;1.27;1.10;;;7.40;99.90;;;;;;4973105;28;20038;-79
2022/02/04 19:25:59;;;;;;;2.35;1.70;;;7.40;99.90;;;;;;4977850;28;20074;-79
2022/02/04 19:28:26;;;;;;;2.13;1.42;;;7.30;99.90;;;;;;4980592;28;20015;-80
2022/02/04 19:30:54;;;;;;;2.03;1.20;;;7.40;99.90;;;;;;4983745;28;20115;-81
2022/02/04 19:33:21;;;;;;;1.48;1.20;;;7.40;99.90;;;;;;4987215;28;20023;-79